Temp: 17.2°C   Baro: 1010.2mb
  Wind: 6.9mph   Dir: W (275°)
  Rain: 0.8mm (0.0mm/hr)
  Solar: 155W/m2  Hum: 92%
 
Bath Spa Weather Station Historical Data
Daily Summary for November 21, 2019 Units:  Metric    English   Both
Daily Weekly Monthly Yearly Custom
  High: Low: Average:
Temperature: 7.1 °C 4.2 °C 5.6 °C
Dew Point: 6.2 °C 2.4 °C 4 °C
Humidity: 94% 86% 89%
Wind Speed: 13.7km/h 1.4km/h 7.2km/h
Wind Gust: 29km/h - -
Wind- - ESE
Pressure: 1004.6 hPa 994.5 hPa -
Precipitation: 0.25 mm    
Historical Graphs
 
 
Tabular Data for November 21, 2019
Time Temperature Dew Point Pressure Wind Wind Speed Wind Gust Humidity Rainfall Rate (Hourly) solar
00:04 5.3 °C 3.3 °C 1004.6 hPa ESE 5.8 km/h 17.7 km/h 87% 0 mm 0 W/m2
00:09 5.3 °C 3.3 °C 1004.6 hPa ESE 4.5 km/h 17.7 km/h 86.9% 0 mm 0 W/m2
00:14 5.3 °C 3.2 °C 1004.6 hPa ESE 7.4 km/h 16.1 km/h 86.3% 0 mm 0 W/m2
00:19 5.4 °C 3.2 °C 1004.3 hPa ESE 6.9 km/h 17.7 km/h 86% 0 mm 0 W/m2
00:24 5.4 °C 3.2 °C 1004.3 hPa East 6.9 km/h 14.5 km/h 86% 0 mm 0 W/m2
00:29 5.4 °C 3.3 °C 1004.3 hPa ESE 9.2 km/h 20.9 km/h 86.2% 0 mm 0 W/m2
00:34 5.4 °C 3.3 °C 1004.3 hPa ESE 7.6 km/h 20.9 km/h 86.5% 0 mm 0 W/m2
00:39 5.4 °C 3.4 °C 1004.3 hPa ESE 7.9 km/h 17.7 km/h 87% 0 mm 0 W/m2
00:44 5.4 °C 3.4 °C 1003.9 hPa ESE 5.8 km/h 17.7 km/h 87% 0 mm 0 W/m2
00:49 5.5 °C 3.5 °C 1003.9 hPa ESE 9.3 km/h 24.1 km/h 87% 0 mm 0 W/m2
00:54 5.5 °C 3.3 °C 1003.9 hPa ESE 5.8 km/h 16.1 km/h 86.3% 0 mm 0 W/m2
00:59 5.5 °C 3.3 °C 1003.9 hPa ESE 5 km/h 17.7 km/h 86.3% 0 mm 0 W/m2
01:04 5.5 °C 3.4 °C 1003.9 hPa ESE 2.9 km/h 12.9 km/h 86.9% 0 mm 0 W/m2
01:09 5.4 °C 3.3 °C 1004.3 hPa ESE 3.2 km/h 14.5 km/h 86.3% 0 mm 0 W/m2
01:14 5.4 °C 3.2 °C 1004.3 hPa SE 6.4 km/h 17.7 km/h 86% 0 mm 0 W/m2
01:19 5.4 °C 3.4 °C 1004.3 hPa SE 6.6 km/h 17.7 km/h 87% 0 mm 0 W/m2
01:24 5.4 °C 3.4 °C 1003.9 hPa ESE 6.9 km/h 16.1 km/h 87% 0 mm 0 W/m2
01:29 5.4 °C 3.4 °C 1003.9 hPa SE 7.7 km/h 14.5 km/h 87% 0 mm 0 W/m2
01:34 5.4 °C 3.4 °C 1003.9 hPa ESE 8.9 km/h 24.1 km/h 87% 0 mm 0 W/m2
01:39 5.4 °C 3.4 °C 1003.9 hPa SE 8 km/h 24.1 km/h 87% 0 mm 0 W/m2
01:44 5.3 °C 3.3 °C 1003.9 hPa ESE 6.1 km/h 19.3 km/h 87% 0 mm 0 W/m2
01:49 5.3 °C 3.3 °C 1003.9 hPa ESE 6.8 km/h 17.7 km/h 87% 0 mm 0 W/m2
01:54 5.3 °C 3.3 °C 1003.9 hPa ESE 6.6 km/h 14.5 km/h 87% 0 mm 0 W/m2
01:59 5.3 °C 3.3 °C 1003.9 hPa ESE 8.2 km/h 22.5 km/h 87% 0 mm 0 W/m2
02:04 5.2 °C 3.2 °C 1003.9 hPa ESE 8.4 km/h 17.7 km/h 87% 0 mm 0 W/m2
02:09 5.2 °C 3.2 °C 1003.9 hPa SE 4.5 km/h 17.7 km/h 87% 0 mm 0 W/m2
02:14 5.2 °C 3.2 °C 1003.9 hPa ESE 7.7 km/h 16.1 km/h 87% 0 mm 0 W/m2
02:19 5.2 °C 3.2 °C 1003.6 hPa SE 7.2 km/h 16.1 km/h 87% 0 mm 0 W/m2
02:24 5.1 °C 3.1 °C 1003.6 hPa ESE 7.9 km/h 19.3 km/h 87% 0 mm 0 W/m2
02:29 5.1 °C 3.1 °C 1003.6 hPa SE 7.4 km/h 22.5 km/h 87% 0 mm 0 W/m2
02:34 5.1 °C 3.1 °C 1003.6 hPa ESE 8.7 km/h 17.7 km/h 87% 0 mm 0 W/m2
02:39 5.1 °C 3.1 °C 1003.3 hPa SE 7.2 km/h 17.7 km/h 87% 0 mm 0 W/m2
02:44 5 °C 3 °C 1003.3 hPa ESE 6.6 km/h 16.1 km/h 87% 0 mm 0 W/m2
02:49 5 °C 3 °C 1003.3 hPa ESE 10.3 km/h 22.5 km/h 87% 0 mm 0 W/m2
02:54 4.9 °C 2.9 °C 1003.3 hPa ESE 6.9 km/h 20.9 km/h 87% 0 mm 0 W/m2
02:59 4.9 °C 2.9 °C 1003.3 hPa ESE 5.8 km/h 16.1 km/h 87% 0 mm 0 W/m2
03:04 4.8 °C 2.8 °C 1003.3 hPa ESE 6.4 km/h 25.7 km/h 87% 0 mm 0 W/m2
03:09 4.8 °C 2.8 °C 1003.3 hPa ESE 6.6 km/h 25.7 km/h 87% 0 mm 0 W/m2
03:14 4.8 °C 2.8 °C 1003.3 hPa ESE 10.5 km/h 22.5 km/h 87% 0 mm 0 W/m2
03:19 4.8 °C 3 °C 1003.3 hPa ESE 8.5 km/h 25.7 km/h 88% 0 mm 0 W/m2
03:24 4.7 °C 2.9 °C 1003.3 hPa ESE 9.3 km/h 19.3 km/h 88% 0 mm 0 W/m2
03:29 4.7 °C 2.9 °C 1003.3 hPa ESE 7.7 km/h 20.9 km/h 88% 0 mm 0 W/m2
03:34 4.6 °C 2.8 °C 1002.9 hPa ESE 7.4 km/h 20.9 km/h 88% 0 mm 0 W/m2
03:39 4.6 °C 2.8 °C 1002.9 hPa ESE 5.1 km/h 16.1 km/h 88% 0 mm 0 W/m2
03:44 4.4 °C 2.7 °C 1002.9 hPa ESE 3.7 km/h 12.9 km/h 88% 0 mm 0 W/m2
03:49 4.3 °C 2.6 °C 1002.9 hPa ESE 8.2 km/h 20.9 km/h 88% 0 mm 0 W/m2
03:54 4.3 °C 2.5 °C 1002.9 hPa ESE 5.8 km/h 20.9 km/h 88% 0 mm 0 W/m2
03:59 4.2 °C 2.4 °C 1002.9 hPa SE 4.8 km/h 12.9 km/h 88% 0 mm 0 W/m2
04:04 4.2 °C 2.4 °C 1002.9 hPa SE 4.7 km/h 9.7 km/h 88% 0 mm 0 W/m2
04:09 4.2 °C 2.4 °C 1002.9 hPa SE 6.1 km/h 11.3 km/h 88% 0 mm 0 W/m2
04:14 4.2 °C 2.4 °C 1002.9 hPa ESE 6.9 km/h 16.1 km/h 88% 0 mm 0 W/m2
04:19 4.2 °C 2.4 °C 1002.9 hPa ESE 9 km/h 20.9 km/h 88% 0 mm 0 W/m2
04:24 4.3 °C 2.5 °C 1002.9 hPa ESE 6 km/h 20.9 km/h 88.2% 0 mm 0 W/m2
04:29 4.3 °C 2.6 °C 1002.9 hPa ESE 4.3 km/h 12.9 km/h 88.8% 0 mm 0 W/m2
04:34 4.3 °C 2.6 °C 1002.9 hPa East 5.5 km/h 12.9 km/h 89% 0 mm 0 W/m2
04:39 4.3 °C 2.7 °C 1002.9 hPa East 5.1 km/h 11.3 km/h 89% 0 mm 0 W/m2
04:44 4.4 °C 2.7 °C 1002.9 hPa East 6.6 km/h 19.3 km/h 89% 0 mm 0 W/m2
04:49 4.5 °C 2.8 °C 1002.9 hPa ESE 6.6 km/h 19.3 km/h 89% 0 mm 0 W/m2
04:54 4.6 °C 2.8 °C 1002.9 hPa SE 3.4 km/h 16.1 km/h 89% 0 mm 0 W/m2
04:59 4.6 °C 2.8 °C 1002.9 hPa ESE 6.8 km/h 17.7 km/h 89% 0 mm 0 W/m2
05:04 4.6 °C 2.9 °C 1002.9 hPa ESE 5.6 km/h 19.3 km/h 89% 0 mm 0 W/m2
05:09 4.7 °C 2.9 °C 1002.9 hPa ESE 7.7 km/h 19.3 km/h 89% 0 mm 0 W/m2
05:14 4.7 °C 3 °C 1002.9 hPa ESE 6 km/h 14.5 km/h 89% 0 mm 0 W/m2
05:19 4.7 °C 3 °C 1002.6 hPa East 7.2 km/h 14.5 km/h 89% 0 mm 0 W/m2
05:24 4.7 °C 3 °C 1002.6 hPa East 6.3 km/h 14.5 km/h 89% 0 mm 0 W/m2
05:29 4.7 °C 3 °C 1002.6 hPa East 6.8 km/h 14.5 km/h 89% 0 mm 0 W/m2
05:34 4.7 °C 3 °C 1002.6 hPa ESE 3.9 km/h 22.5 km/h 89% 0 mm 0 W/m2
05:39 4.7 °C 2.9 °C 1002.6 hPa ESE 5.1 km/h 16.1 km/h 89% 0 mm 0 W/m2
05:44 4.6 °C 2.9 °C 1002.6 hPa ESE 2.6 km/h 14.5 km/h 89% 0 mm 0 W/m2
05:49 4.6 °C 2.9 °C 1002.6 hPa ENE 6.3 km/h 16.1 km/h 89% 0 mm 0 W/m2
05:54 4.6 °C 2.8 °C 1002.6 hPa East 3.7 km/h 12.9 km/h 89% 0 mm 0 W/m2
05:59 4.5 °C 2.8 °C 1002.3 hPa East 7.4 km/h 17.7 km/h 89% 0 mm 0 W/m2
06:04 4.4 °C 2.8 °C 1002.3 hPa East 2.6 km/h 14.5 km/h 89% 0 mm 0 W/m2
06:09 4.4 °C 2.7 °C 1002.3 hPa East 1.4 km/h 11.3 km/h 89% 0 mm 0 W/m2
06:14 4.3 °C 2.6 °C 1002.3 hPa East 3.7 km/h 12.9 km/h 89% 0 mm 0 W/m2
06:19 4.3 °C 2.6 °C 1002.3 hPa ENE 3.7 km/h 9.7 km/h 89% 0 mm 0 W/m2
06:24 4.3 °C 2.6 °C 1002.3 hPa ESE 2.3 km/h 11.3 km/h 89% 0 mm 0 W/m2
06:29 4.3 °C 2.6 °C 1002.3 hPa ESE 2.1 km/h 11.3 km/h 89% 0 mm 0 W/m2
06:34 4.2 °C 2.6 °C 1002.3 hPa ESE 2.7 km/h 11.3 km/h 89% 0 mm 0 W/m2
06:39 4.2 °C 2.5 °C 1002.3 hPa ESE 4.2 km/h 17.7 km/h 89% 0 mm 0 W/m2
06:44 4.2 °C 2.5 °C 1002.3 hPa ESE 7.2 km/h 17.7 km/h 89% 0 mm 0 W/m2
06:49 4.2 °C 2.6 °C 1002.3 hPa ESE 5 km/h 12.9 km/h 89% 0 mm 0 W/m2
06:54 4.2 °C 2.6 °C 1002.3 hPa East 3.7 km/h 11.3 km/h 89% 0 mm 0 W/m2
06:59 4.2 °C 2.5 °C 1002.3 hPa ESE 4.7 km/h 14.5 km/h 89% 0 mm 0 W/m2
07:04 4.2 °C 2.5 °C 1002.3 hPa ESE 5 km/h 16.1 km/h 89% 0 mm 0 W/m2
07:09 4.2 °C 2.6 °C 1001.9 hPa East 5 km/h 14.5 km/h 89.2% 0 mm 0 W/m2
07:14 4.2 °C 2.6 °C 1002.3 hPa ESE 7.7 km/h 16.1 km/h 89.4% 0 mm 0 W/m2
07:19 4.2 °C 2.6 °C 1001.9 hPa ESE 6.3 km/h 14.5 km/h 89.1% 0 mm 0 W/m2
07:24 4.3 °C 2.7 °C 1001.9 hPa ESE 8.5 km/h 19.3 km/h 89.8% 0 mm 0 W/m2
07:29 4.3 °C 2.8 °C 1001.9 hPa ESE 5.8 km/h 19.3 km/h 90% 0 mm 0 W/m2
07:34 4.3 °C 2.8 °C 1001.9 hPa ESE 9.5 km/h 24.1 km/h 90% 0 mm 0 W/m2
07:39 4.4 °C 2.9 °C 1002.3 hPa ESE 6 km/h 14.5 km/h 90% 0 mm 0 W/m2
07:44 4.4 °C 2.9 °C 1001.9 hPa ESE 10 km/h 20.9 km/h 90% 0 mm 7 W/m2
07:49 4.5 °C 3 °C 1001.9 hPa ESE 8.4 km/h 22.5 km/h 90% 0 mm 9 W/m2
07:54 4.6 °C 3.1 °C 1001.9 hPa ESE 7.6 km/h 19.3 km/h 90% 0 mm 11 W/m2
07:59 4.6 °C 3.1 °C 1001.9 hPa East 9.3 km/h 25.7 km/h 90% 0 mm 12 W/m2
08:04 4.7 °C 3.2 °C 1001.9 hPa East 9.2 km/h 17.7 km/h 90% 0 mm 16 W/m2
08:09 4.8 °C 3.3 °C 1001.9 hPa East 11.1 km/h 24.1 km/h 90% 0 mm 19 W/m2
08:14 4.8 °C 3.3 °C 1001.9 hPa ESE 11.9 km/h 24.1 km/h 90% 0 mm 21 W/m2
08:19 4.8 °C 3.3 °C 1001.9 hPa ESE 8.2 km/h 19.3 km/h 90% 0 mm 26 W/m2
08:24 4.8 °C 3.3 °C 1001.9 hPa ESE 12.1 km/h 24.1 km/h 90% 0 mm 30 W/m2
08:29 4.8 °C 3.3 °C 1001.9 hPa East 9.2 km/h 22.5 km/h 90% 0 mm 30 W/m2
08:34 4.8 °C 3.3 °C 1001.9 hPa East 7.7 km/h 20.9 km/h 90% 0 mm 32 W/m2
08:39 4.9 °C 3.4 °C 1001.9 hPa ENE 10 km/h 20.9 km/h 90% 0 mm 35 W/m2
08:44 5.1 °C 3.6 °C 1001.9 hPa East 10.3 km/h 22.5 km/h 90% 0 mm 37 W/m2
08:49 5.1 °C 3.6 °C 1001.9 hPa ESE 8.4 km/h 22.5 km/h 90% 0 mm 35 W/m2
08:54 5.2 °C 3.7 °C 1001.9 hPa ESE 11.9 km/h 25.7 km/h 90% 0 mm 37 W/m2
08:59 5.2 °C 3.7 °C 1001.9 hPa ESE 5.3 km/h 16.1 km/h 90% 0 mm 35 W/m2
09:04 5.2 °C 3.7 °C 1001.9 hPa East 9.7 km/h 22.5 km/h 90% 0 mm 35 W/m2
09:09 5.3 °C 3.7 °C 1001.9 hPa ESE 8.4 km/h 22.5 km/h 89.3% 0 mm 40 W/m2
09:14 5.4 °C 3.7 °C 1001.9 hPa East 5 km/h 14.5 km/h 89% 0 mm 42 W/m2
09:19 5.4 °C 3.8 °C 1001.9 hPa East 7.1 km/h 16.1 km/h 89.6% 0 mm 35 W/m2
09:24 5.5 °C 3.8 °C 1001.9 hPa ESE 6.6 km/h 16.1 km/h 89% 0 mm 30 W/m2
09:29 5.6 °C 3.8 °C 1001.9 hPa ESE 7.4 km/h 14.5 km/h 89% 0 mm 30 W/m2
09:34 5.6 °C 3.9 °C 1001.9 hPa East 6 km/h 14.5 km/h 89% 0 mm 26 W/m2
09:39 5.7 °C 4 °C 1001.9 hPa East 5 km/h 12.9 km/h 89% 0 mm 26 W/m2
09:44 5.7 °C 4 °C 1001.9 hPa East 6.6 km/h 19.3 km/h 89% 0 mm 26 W/m2
09:49 5.8 °C 4.1 °C 1001.9 hPa ESE 7.2 km/h 19.3 km/h 89% 0 mm 26 W/m2
09:54 5.8 °C 4.1 °C 1001.9 hPa ESE 7.2 km/h 17.7 km/h 89% 0 mm 28 W/m2
09:59 5.8 °C 4.1 °C 1001.9 hPa ESE 6.4 km/h 17.7 km/h 89% 0 mm 35 W/m2
10:04 5.8 °C 4.1 °C 1001.9 hPa ESE 8 km/h 19.3 km/h 89% 0 mm 37 W/m2
10:09 5.9 °C 4.2 °C 1001.6 hPa ESE 7.2 km/h 14.5 km/h 89% 0 mm 63 W/m2
10:14 5.9 °C 4.2 °C 1001.6 hPa SE 7.4 km/h 16.1 km/h 89% 0 mm 56 W/m2
10:19 5.9 °C 4.2 °C 1001.6 hPa ESE 9.7 km/h 25.7 km/h 89% 0 mm 54 W/m2
10:24 6 °C 4.2 °C 1001.6 hPa SE 8 km/h 22.5 km/h 88.6% 0 mm 62 W/m2
10:29 6 °C 4.3 °C 1001.6 hPa ESE 7.9 km/h 19.3 km/h 88.8% 0 mm 54 W/m2
10:34 6.1 °C 4.3 °C 1001.6 hPa ESE 8.5 km/h 20.9 km/h 88% 0 mm 65 W/m2
10:39 6.1 °C 4.3 °C 1001.2 hPa ESE 9.2 km/h 20.9 km/h 88% 0 mm 70 W/m2
10:44 6.1 °C 4.3 °C 1001.2 hPa SE 8.4 km/h 19.3 km/h 88% 0 mm 79 W/m2
10:49 6.1 °C 4.3 °C 1001.2 hPa SE 8.5 km/h 22.5 km/h 88% 0 mm 83 W/m2
10:54 6.2 °C 4.3 °C 1001.2 hPa SE 7.1 km/h 16.1 km/h 88% 0 mm 107 W/m2
10:59 6.2 °C 4.4 °C 1001.2 hPa ESE 10.8 km/h 20.9 km/h 88% 0 mm 114 W/m2
11:04 6.3 °C 4.5 °C 1000.9 hPa ESE 10.9 km/h 20.9 km/h 88% 0 mm 118 W/m2
11:09 6.3 °C 4.6 °C 1000.9 hPa ESE 8.7 km/h 19.3 km/h 88% 0 mm 135 W/m2
11:14 6.4 °C 4.6 °C 1000.9 hPa ESE 7.6 km/h 19.3 km/h 87.8% 0 mm 141 W/m2
11:19 6.4 °C 4.4 °C 1000.9 hPa ESE 13.5 km/h 24.1 km/h 87% 0 mm 162 W/m2
11:24 6.6 °C 4.6 °C 1000.9 hPa SE 8.9 km/h 19.3 km/h 87% 0 mm 146 W/m2
11:29 6.6 °C 4.6 °C 1000.9 hPa ESE 13.7 km/h 25.7 km/h 87% 0 mm 137 W/m2
11:34 6.7 °C 4.7 °C 1000.6 hPa SE 9 km/h 24.1 km/h 87% 0 mm 104 W/m2
11:39 6.6 °C 4.6 °C 1000.6 hPa ESE 8.4 km/h 19.3 km/h 87% 0 mm 86 W/m2
11:44 6.6 °C 4.6 °C 1000.6 hPa ESE 10.9 km/h 24.1 km/h 87% 0 mm 90 W/m2
11:49 6.7 °C 4.7 °C 1000.6 hPa SE 9.3 km/h 20.9 km/h 87% 0 mm 120 W/m2
11:54 6.7 °C 4.7 °C 1000.6 hPa SE 10.9 km/h 24.1 km/h 87% 0 mm 144 W/m2
11:59 6.7 °C 4.7 °C 1000.2 hPa ESE 11.4 km/h 24.1 km/h 87% 0 mm 195 W/m2
12:04 6.8 °C 4.7 °C 1000.2 hPa ESE 9.7 km/h 22.5 km/h 86.9% 0 mm 163 W/m2
12:09 6.8 °C 4.8 °C 1000.2 hPa SE 10.6 km/h 19.3 km/h 86.9% 0 mm 137 W/m2
12:14 6.8 °C 4.6 °C 1000.2 hPa ESE 10.8 km/h 20.9 km/h 86% 0 mm 206 W/m2
12:19 6.8 °C 4.6 °C 999.9 hPa ESE 12.7 km/h 27.4 km/h 86% 0 mm 199 W/m2
12:24 6.8 °C 4.7 °C 999.9 hPa ESE 10.3 km/h 27.4 km/h 86% 0 mm 142 W/m2
12:29 6.8 °C 4.6 °C 999.9 hPa ESE 10.3 km/h 24.1 km/h 86% 0 mm 93 W/m2
12:34 6.8 °C 4.6 °C 999.9 hPa ESE 9.5 km/h 24.1 km/h 86% 0 mm 79 W/m2
12:39 6.8 °C 4.6 °C 999.9 hPa ESE 9.2 km/h 20.9 km/h 86% 0 mm 81 W/m2
12:44 6.7 °C 4.5 °C 999.9 hPa East 9.5 km/h 20.9 km/h 86% 0 mm 70 W/m2
12:49 6.7 °C 4.6 °C 999.9 hPa ESE 10 km/h 24.1 km/h 86.4% 0 mm 60 W/m2
12:54 6.7 °C 4.7 °C 999.9 hPa SE 8.5 km/h 17.7 km/h 87% 0 mm 42 W/m2
12:59 6.7 °C 4.7 °C 999.5 hPa ESE 7.6 km/h 20.9 km/h 87% 0 mm 32 W/m2
13:04 6.6 °C 4.6 °C 999.5 hPa ESE 8.4 km/h 20.9 km/h 87% 0 mm 37 W/m2
13:09 6.6 °C 4.6 °C 999.5 hPa SE 10.1 km/h 22.5 km/h 87% 0 mm 30 W/m2
13:14 6.4 °C 4.4 °C 999.5 hPa ESE 12.2 km/h 27.4 km/h 87% 0 mm 39 W/m2
13:19 6.4 °C 4.4 °C 999.5 hPa ESE 10.6 km/h 24.1 km/h 87% 0 mm 42 W/m2
13:24 6.4 °C 4.4 °C 999.5 hPa ESE 10.3 km/h 22.5 km/h 87% 0 mm 39 W/m2
13:29 6.4 °C 4.4 °C 999.5 hPa ESE 8.4 km/h 22.5 km/h 87.3% 0 mm 42 W/m2
13:34 6.4 °C 4.6 °C 999.5 hPa ESE 11.1 km/h 20.9 km/h 88% 0 mm 39 W/m2
13:39 6.4 °C 4.6 °C 999.5 hPa ESE 10 km/h 24.1 km/h 88% 0 mm 42 W/m2
13:44 6.4 °C 4.7 °C 999.2 hPa ESE 12.9 km/h 24.1 km/h 88% 0 mm 44 W/m2
13:49 6.4 °C 4.6 °C 999.2 hPa ESE 8.4 km/h 20.9 km/h 87.7% 0 mm 39 W/m2
13:54 6.4 °C 4.4 °C 999.2 hPa ESE 10.8 km/h 25.7 km/h 87.2% 0 mm 40 W/m2
13:59 6.4 °C 4.4 °C 998.9 hPa ESE 7.9 km/h 25.7 km/h 87% 0 mm 49 W/m2
14:04 6.4 °C 4.4 °C 998.9 hPa East 8 km/h 20.9 km/h 87% 0 mm 56 W/m2
14:09 6.4 °C 4.4 °C 998.9 hPa East 10.8 km/h 22.5 km/h 87% 0 mm 58 W/m2
14:14 6.3 °C 4.3 °C 998.9 hPa ESE 10.8 km/h 22.5 km/h 87% 0 mm 62 W/m2
14:19 6.2 °C 4.2 °C 998.9 hPa East 9.2 km/h 22.5 km/h 87% 0 mm 44 W/m2
14:24 6.1 °C 4.1 °C 998.9 hPa East 9.5 km/h 22.5 km/h 87.1% 0 mm 40 W/m2
14:29 6 °C 4.2 °C 998.5 hPa East 10.1 km/h 22.5 km/h 88% 0 mm 40 W/m2
14:34 5.9 °C 4.1 °C 998.5 hPa ESE 11.1 km/h 24.1 km/h 88% 0 mm 33 W/m2
14:39 5.8 °C 4 °C 998.5 hPa East 11.3 km/h 27.4 km/h 88% 0 mm 37 W/m2
14:44 5.8 °C 4 °C 998.5 hPa ESE 9.2 km/h 24.1 km/h 88% 0 mm 26 W/m2
14:49 5.7 °C 3.9 °C 998.5 hPa East 13.5 km/h 29 km/h 88% 0 mm 25 W/m2
14:54 5.7 °C 4 °C 998.5 hPa East 12.4 km/h 27.4 km/h 88.8% 0 mm 18 W/m2
14:59 5.7 °C 3.9 °C 998.5 hPa East 10.1 km/h 24.1 km/h 89% 0 mm 14 W/m2
15:04 5.6 °C 3.9 °C 998.5 hPa East 10.6 km/h 25.7 km/h 89% 0 mm 14 W/m2
15:09 5.7 °C 3.9 °C 998.2 hPa ESE 9.5 km/h 25.7 km/h 89% 0 mm 14 W/m2
15:14 5.7 °C 3.9 °C 998.2 hPa ESE 6.9 km/h 16.1 km/h 89% 0 mm 16 W/m2
15:19 5.7 °C 4 °C 998.2 hPa East 12.4 km/h 29 km/h 89% 0 mm 16 W/m2
15:24 5.7 °C 4 °C 998.2 hPa East 9.2 km/h 29 km/h 89% 0 mm 16 W/m2
15:29 5.7 °C 4 °C 998.2 hPa East 10 km/h 20.9 km/h 89% 0 mm 12 W/m2
15:34 5.7 °C 4 °C 998.2 hPa East 11.4 km/h 22.5 km/h 89% 0 mm 12 W/m2
15:39 5.7 °C 4 °C 998.2 hPa East 9.5 km/h 24.1 km/h 89% 0 mm 11 W/m2
15:44 5.7 °C 4 °C 998.2 hPa East 8 km/h 24.1 km/h 89% 0 mm 7 W/m2
15:49 5.8 °C 4.1 °C 998.2 hPa East 6.3 km/h 20.9 km/h 89% 0 mm 0 W/m2
15:54 5.8 °C 4.1 °C 998.2 hPa ESE 10.6 km/h 22.5 km/h 89% 0 mm 0 W/m2
15:59 5.8 °C 4.1 °C 998.2 hPa ESE 6.6 km/h 17.7 km/h 89% 0 mm 0 W/m2
16:04 5.8 °C 4.2 °C 998.2 hPa ESE 5.3 km/h 17.7 km/h 89.6% 0 mm 0 W/m2
16:09 5.8 °C 4.3 °C 998.2 hPa ESE 9 km/h 19.3 km/h 90% 0 mm 0 W/m2
16:14 5.8 °C 4.3 °C 997.9 hPa East 7.4 km/h 16.1 km/h 90% 0 mm 0 W/m2
16:19 5.9 °C 4.4 °C 997.9 hPa ESE 7.1 km/h 20.9 km/h 90% 0 mm 0 W/m2
16:24 5.9 °C 4.4 °C 997.9 hPa East 6.8 km/h 17.7 km/h 90% 0 mm 0 W/m2
16:29 5.9 °C 4.4 °C 997.9 hPa ESE 8.5 km/h 16.1 km/h 90% 0 mm 0 W/m2
16:34 5.9 °C 4.4 °C 997.9 hPa East 7.7 km/h 17.7 km/h 90% 0 mm 0 W/m2
16:39 6 °C 4.5 °C 997.9 hPa ESE 7.4 km/h 19.3 km/h 90% 0 mm 0 W/m2
16:44 6.1 °C 4.6 °C 997.9 hPa East 8.2 km/h 20.9 km/h 90% 0 mm 0 W/m2
16:49 6.1 °C 4.6 °C 997.9 hPa East 9.3 km/h 20.9 km/h 90% 0 mm 0 W/m2
16:54 6.1 °C 4.6 °C 997.9 hPa East 6.1 km/h 14.5 km/h 90% 0 mm 0 W/m2
16:59 6.1 °C 4.6 °C 997.9 hPa East 7.9 km/h 22.5 km/h 90% 0 mm 0 W/m2
17:04 6.1 °C 4.6 °C 997.9 hPa East 7.9 km/h 17.7 km/h 90% 0 mm 0 W/m2
17:09 6 °C 4.5 °C 997.9 hPa East 6 km/h 16.1 km/h 90% 0 mm 0 W/m2
17:14 6 °C 4.5 °C 997.9 hPa East 6.3 km/h 20.9 km/h 90% 0 mm 0 W/m2
17:19 5.9 °C 4.4 °C 997.5 hPa ESE 10 km/h 20.9 km/h 90% 0 mm 0 W/m2
17:24 5.9 °C 4.4 °C 997.5 hPa East 10 km/h 22.5 km/h 90% 0 mm 0 W/m2
17:29 5.9 °C 4.4 °C 997.5 hPa ESE 6.8 km/h 22.5 km/h 90% 0 mm 0 W/m2
17:34 5.9 °C 4.4 °C 997.5 hPa ESE 8.9 km/h 22.5 km/h 90% 0 mm 0 W/m2
17:39 5.9 °C 4.4 °C 997.5 hPa ESE 6.9 km/h 22.5 km/h 90% 0 mm 0 W/m2
17:44 5.9 °C 4.4 °C 997.5 hPa ESE 5.3 km/h 17.7 km/h 90% 0 mm 0 W/m2
17:49 5.8 °C 4.3 °C 997.5 hPa ESE 4.8 km/h 16.1 km/h 90% 0 mm 0 W/m2
17:54 5.8 °C 4.4 °C 997.2 hPa East 6 km/h 17.7 km/h 90.8% 0 mm 0 W/m2
17:59 5.8 °C 4.4 °C 997.2 hPa ESE 7.7 km/h 22.5 km/h 91% 0 mm 0 W/m2
18:04 5.8 °C 4.4 °C 997.2 hPa East 7.9 km/h 17.7 km/h 91% 0 mm 0 W/m2
18:09 5.8 °C 4.4 °C 997.2 hPa ESE 7.1 km/h 19.3 km/h 91% 0 mm 0 W/m2
18:14 5.8 °C 4.4 °C 997.2 hPa ESE 7.1 km/h 19.3 km/h 91% 0 mm 0 W/m2
18:19 5.8 °C 4.4 °C 997.2 hPa East 7.9 km/h 17.7 km/h 91% 0 mm 0 W/m2
18:24 5.8 °C 4.4 °C 996.8 hPa East 6.8 km/h 17.7 km/h 91% 0 mm 0 W/m2
18:29 5.8 °C 4.4 °C 996.8 hPa ESE 10 km/h 25.7 km/h 91% 0 mm 0 W/m2
18:34 5.8 °C 4.4 °C 996.8 hPa East 9 km/h 19.3 km/h 91% 0 mm 0 W/m2
18:39 5.8 °C 4.4 °C 996.8 hPa ESE 8.9 km/h 17.7 km/h 91% 0 mm 0 W/m2
18:44 5.9 °C 4.5 °C 996.8 hPa ESE 10.8 km/h 20.9 km/h 91% 0 mm 0 W/m2
18:49 5.9 °C 4.5 °C 996.8 hPa East 8 km/h 20.9 km/h 91% 0 mm 0 W/m2
18:54 5.9 °C 4.5 °C 996.8 hPa ESE 6.1 km/h 20.9 km/h 91% 0 mm 0 W/m2
18:59 5.9 °C 4.6 °C 996.8 hPa ESE 6 km/h 14.5 km/h 91.3% 0 mm 0 W/m2
19:04 5.9 °C 4.7 °C 996.8 hPa ESE 6.1 km/h 19.3 km/h 92% 0 mm 0 W/m2
19:09 5.9 °C 4.7 °C 996.8 hPa ESE 6.4 km/h 19.3 km/h 92% 0 mm 0 W/m2
19:14 5.9 °C 4.7 °C 996.8 hPa ESE 6.8 km/h 16.1 km/h 92% 0 mm 0 W/m2
19:19 5.9 °C 4.7 °C 996.8 hPa ESE 6.9 km/h 20.9 km/h 92% 0 mm 0 W/m2
19:24 5.9 °C 4.7 °C 996.8 hPa ESE 8.7 km/h 20.9 km/h 92% 0 mm 0 W/m2
19:29 5.9 °C 4.7 °C 996.8 hPa ESE 9.2 km/h 19.3 km/h 92% 0 mm 0 W/m2
19:34 5.9 °C 4.7 °C 996.8 hPa ESE 5.6 km/h 19.3 km/h 92% 0 mm 0 W/m2
19:39 5.9 °C 4.7 °C 996.8 hPa ESE 6.4 km/h 14.5 km/h 92% 0 mm 0 W/m2
19:44 5.9 °C 4.7 °C 996.8 hPa SE 5.3 km/h 16.1 km/h 92% 0 mm 0 W/m2
19:49 5.9 °C 4.7 °C 996.5 hPa ESE 2.7 km/h 12.9 km/h 92% 0 mm 0 W/m2
19:54 5.9 °C 4.7 °C 996.5 hPa East 3.2 km/h 11.3 km/h 92% 0 mm 0 W/m2
19:59 5.9 °C 4.7 °C 996.5 hPa ESE 3.4 km/h 16.1 km/h 92% 0 mm 0 W/m2
20:04 5.9 °C 4.7 °C 996.5 hPa ESE 5.5 km/h 17.7 km/h 92% 0 mm 0 W/m2
20:09 5.9 °C 4.7 °C 996.5 hPa ESE 7.2 km/h 17.7 km/h 92% 0 mm 0 W/m2
20:14 5.9 °C 4.7 °C 996.5 hPa East 2.4 km/h 17.7 km/h 92% 0 mm 0 W/m2
20:19 5.9 °C 4.7 °C 996.5 hPa ESE 4.8 km/h 12.9 km/h 92% 0 mm 0 W/m2
20:24 5.9 °C 4.7 °C 996.5 hPa ESE 4.7 km/h 14.5 km/h 92% 0 mm 0 W/m2
20:29 5.8 °C 4.7 °C 996.2 hPa East 2.4 km/h 14.5 km/h 92% 0 mm 0 W/m2
20:34 5.8 °C 4.7 °C 996.2 hPa East 3.5 km/h 8 km/h 92% 0.25 mm 0 W/m2
20:39 5.8 °C 4.7 °C 996.2 hPa East 3.5 km/h 11.3 km/h 92% 0.25 mm 0 W/m2
20:44 5.8 °C 4.6 °C 996.2 hPa ESE 3.2 km/h 8 km/h 92% 0.25 mm 0 W/m2
20:49 5.8 °C 4.6 °C 996.2 hPa ESE 3.5 km/h 11.3 km/h 92% 0.25 mm 0 W/m2
20:54 5.8 °C 4.6 °C 996.2 hPa ESE 3.5 km/h 12.9 km/h 92% 0.25 mm 0 W/m2
20:59 5.8 °C 4.7 °C 996.2 hPa East 5 km/h 12.9 km/h 92% 0.25 mm 0 W/m2
21:04 5.9 °C 4.8 °C 996.2 hPa ESE 3.9 km/h 11.3 km/h 92.5% 0.25 mm 0 W/m2
21:09 5.9 °C 4.8 °C 996.2 hPa East 4.7 km/h 14.5 km/h 92.8% 0.25 mm 0 W/m2
21:14 5.9 °C 4.9 °C 996.2 hPa ESE 4.3 km/h 12.9 km/h 93% 0.25 mm 0 W/m2
21:19 5.9 °C 4.9 °C 995.8 hPa ESE 6.4 km/h 12.9 km/h 93% 0.25 mm 0 W/m2
21:24 6 °C 5 °C 995.8 hPa ESE 5.1 km/h 12.9 km/h 93% 0.25 mm 0 W/m2
21:29 6.1 °C 5.1 °C 995.8 hPa East 4.2 km/h 12.9 km/h 93% 0.25 mm 0 W/m2
21:34 6.1 °C 5.1 °C 995.8 hPa ESE 3.5 km/h 14.5 km/h 93% 0.25 mm 0 W/m2
21:39 6.1 °C 5.1 °C 995.8 hPa ESE 5.1 km/h 11.3 km/h 93% 0 mm 0 W/m2
21:44 6.2 °C 5.2 °C 995.8 hPa ESE 6.9 km/h 17.7 km/h 93% 0 mm 0 W/m2
21:49 6.2 °C 5.2 °C 995.8 hPa ESE 4.3 km/h 17.7 km/h 93% 0 mm 0 W/m2
21:54 6.2 °C 5.2 °C 995.8 hPa ESE 4.7 km/h 14.5 km/h 93% 0 mm 0 W/m2
21:59 6.3 °C 5.3 °C 995.8 hPa ESE 4.2 km/h 14.5 km/h 93% 0 mm 0 W/m2
22:04 6.3 °C 5.3 °C 995.5 hPa SE 3.9 km/h 14.5 km/h 93% 0 mm 0 W/m2
22:09 6.3 °C 5.3 °C 995.5 hPa ESE 3.9 km/h 11.3 km/h 93% 0 mm 0 W/m2
22:14 6.3 °C 5.3 °C 995.5 hPa East 3.4 km/h 11.3 km/h 93% 0 mm 0 W/m2
22:19 6.3 °C 5.3 °C 995.5 hPa ESE 5 km/h 12.9 km/h 93% 0 mm 0 W/m2
22:24 6.4 °C 5.4 °C 995.5 hPa ESE 5.6 km/h 12.9 km/h 93% 0 mm 0 W/m2
22:29 6.4 °C 5.4 °C 995.1 hPa East 4.5 km/h 12.9 km/h 93% 0 mm 0 W/m2
22:34 6.5 °C 5.4 °C 995.1 hPa ESE 4.3 km/h 16.1 km/h 93% 0 mm 0 W/m2
22:39 6.6 °C 5.4 °C 995.1 hPa East 4.7 km/h 16.1 km/h 93% 0 mm 0 W/m2
22:44 6.6 °C 5.6 °C 995.1 hPa SE 4.5 km/h 12.9 km/h 93.3% 0 mm 0 W/m2
22:49 6.5 °C 5.6 °C 995.1 hPa ESE 3.4 km/h 12.9 km/h 93.9% 0 mm 0 W/m2
22:54 6.5 °C 5.6 °C 995.1 hPa ESE 3.7 km/h 12.9 km/h 94% 0 mm 0 W/m2
22:59 6.5 °C 5.6 °C 995.1 hPa East 4.3 km/h 11.3 km/h 94% 0 mm 0 W/m2
23:04 6.5 °C 5.6 °C 994.8 hPa ESE 3.2 km/h 8 km/h 94% 0 mm 0 W/m2
23:09 6.6 °C 5.7 °C 994.8 hPa ESE 4.7 km/h 11.3 km/h 94% 0 mm 0 W/m2
23:14 6.6 °C 5.7 °C 994.8 hPa SE 4.5 km/h 12.9 km/h 94% 0 mm 0 W/m2
23:19 6.7 °C 5.8 °C 994.8 hPa ESE 3.5 km/h 9.7 km/h 94% 0 mm 0 W/m2
23:24 6.7 °C 5.8 °C 994.8 hPa ESE 3.4 km/h 8 km/h 94% 0 mm 0 W/m2
23:29 6.7 °C 5.8 °C 994.8 hPa ESE 4.7 km/h 11.3 km/h 94% 0 mm 0 W/m2
23:34 6.8 °C 5.8 °C 994.8 hPa ESE 5.5 km/h 12.9 km/h 94% 0 mm 0 W/m2
23:39 6.8 °C 5.9 °C 994.8 hPa ESE 5.8 km/h 11.3 km/h 94% 0 mm 0 W/m2
23:44 6.9 °C 6 °C 994.8 hPa ESE 5 km/h 12.9 km/h 94% 0 mm 0 W/m2
23:49 6.9 °C 6.1 °C 994.8 hPa ESE 7.2 km/h 17.7 km/h 94% 0 mm 0 W/m2
23:54 7.1 °C 6.2 °C 994.5 hPa ESE 6.3 km/h 17.7 km/h 94% 0 mm 0 W/m2
23:59 7.1 °C 6.2 °C 994.5 hPa ESE 6.9 km/h 14.5 km/h 94% 0 mm 0 W/m2
Bath Spa Weather
Compliments of Weather Underground - 2 mb